Time;durP1;ratioP1;P1;durP2;ratioP2;P2;SDS_P1;SDS_P2;PMS_P1;PMS_P2;Temp;Humidity;BMP_temperature;BMP_pressure;BME280_temperature;BME280_humidity;BME280_pressure;Samples;Min_cycle;Max_cycle;Signal;HPM_P1;HPM_P2
2022/08/30 00:01:28;;;;;;;8.48;2.05;;;18.00;99.90;;;;;;5072075;28;20029;-63
2022/08/30 00:03:54;;;;;;;6.72;2.35;;;18.00;99.90;;;;;;5070758;28;20051;-64
2022/08/30 00:06:21;;;;;;;8.88;2.40;;;17.90;99.90;;;;;;5067706;28;20028;-64
2022/08/30 00:08:48;;;;;;;5.00;2.35;;;17.90;99.90;;;;;;5073104;28;20027;-63
2022/08/30 00:11:16;;;;;;;6.03;2.25;;;17.80;99.90;;;;;;5066750;28;20025;-64
2022/08/30 00:13:44;;;;;;;7.32;2.58;;;17.80;99.90;;;;;;5071098;28;20036;-63
2022/08/30 00:16:11;;;;;;;6.45;2.55;;;17.80;99.90;;;;;;5066332;28;20008;-63
2022/08/30 00:18:37;;;;;;;10.10;2.63;;;17.70;99.90;;;;;;5068578;28;20016;-64
2022/08/30 00:21:04;;;;;;;6.03;2.28;;;17.60;99.90;;;;;;5068748;28;20035;-64
2022/08/30 00:23:31;;;;;;;14.45;2.75;;;17.70;99.90;;;;;;5072594;28;20130;-64
2022/08/30 00:25:57;;;;;;;4.07;2.15;;;17.70;99.90;;;;;;5071155;28;20097;-64
2022/08/30 00:28:22;;;;;;;9.10;1.90;;;17.70;99.90;;;;;;5068059;28;20060;-61
2022/08/30 00:30:49;;;;;;;8.52;2.25;;;17.60;99.90;;;;;;5066957;28;20021;-63
2022/08/30 00:33:15;;;;;;;5.82;2.88;;;17.60;99.90;;;;;;5070379;28;20107;-64
2022/08/30 00:35:42;;;;;;;9.85;2.72;;;17.50;99.90;;;;;;5069016;28;20103;-64
2022/08/30 00:38:08;;;;;;;7.38;2.53;;;17.50;99.90;;;;;;5070683;28;20019;-63
2022/08/30 00:40:34;;;;;;;3.47;2.03;;;17.50;99.90;;;;;;5071883;28;20416;-63
2022/08/30 00:43:03;;;;;;;4.00;2.33;;;17.50;99.90;;;;;;5071835;28;20039;-64
2022/08/30 00:45:32;;;;;;;4.70;2.08;;;17.40;99.90;;;;;;5067694;28;20370;-64
2022/08/30 00:47:58;;;;;;;5.07;2.42;;;17.40;99.90;;;;;;5072279;28;20024;-64
2022/08/30 00:50:29;;;;;;;8.15;2.13;;;17.40;99.90;;;;;;5072099;28;20512;-63
2022/08/30 00:52:58;;;;;;;8.32;2.33;;;17.30;99.90;;;;;;5064822;28;20029;-64
2022/08/30 00:55:25;;;;;;;7.22;2.40;;;17.30;99.90;;;;;;5070522;28;20024;-63
2022/08/30 00:57:56;;;;;;;4.47;2.00;;;17.30;99.90;;;;;;5072061;28;20066;-64
2022/08/30 01:00:21;;;;;;;5.35;2.40;;;17.20;99.90;;;;;;5070311;28;20099;-63
2022/08/30 01:02:47;;;;;;;6.15;2.80;;;17.20;99.90;;;;;;5069230;28;20115;-63
2022/08/30 01:05:13;;;;;;;5.38;2.13;;;17.20;99.90;;;;;;5065013;28;20103;-63
2022/08/30 01:07:40;;;;;;;6.97;2.50;;;17.20;99.90;;;;;;5067057;28;20021;-61
2022/08/30 01:10:08;;;;;;;8.52;2.63;;;17.20;99.90;;;;;;5071251;28;20028;-62
2022/08/30 01:12:35;;;;;;;6.40;2.50;;;17.10;99.90;;;;;;5068104;28;20426;-64
2022/08/30 01:15:01;;;;;;;5.40;2.65;;;17.10;99.90;;;;;;5071051;28;20043;-63
2022/08/30 01:17:27;;;;;;;6.15;2.85;;;17.10;99.90;;;;;;5071968;28;20565;-63
2022/08/30 01:19:57;;;;;;;6.95;2.47;;;17.00;99.90;;;;;;5071066;28;20035;-63
2022/08/30 01:22:45;;;;;;;5.53;2.38;;;17.10;99.90;;;;;;5070776;28;20496;-62
2022/08/30 01:25:13;;;;;;;8.20;2.58;;;17.10;99.90;;;;;;5070433;28;20385;-63
2022/08/30 01:27:44;;;;;;;11.45;2.45;;;17.20;99.90;;;;;;5068496;28;20020;-62
2022/08/30 01:30:11;;;;;;;7.97;2.83;;;17.30;99.90;;;;;;5071088;28;20059;-64
2022/08/30 01:32:42;;;;;;;8.85;2.85;;;17.20;99.90;;;;;;5067648;28;20120;-63
2022/08/30 01:35:11;;;;;;;6.32;2.72;;;17.20;99.90;;;;;;5066301;28;20024;-63
2022/08/30 01:37:37;;;;;;;4.70;2.40;;;17.30;99.90;;;;;;5063907;28;20504;-63
2022/08/30 01:40:05;;;;;;;9.38;2.60;;;17.30;99.90;;;;;;5069569;28;20512;-63
2022/08/30 01:42:31;;;;;;;7.78;2.22;;;17.30;99.90;;;;;;5065066;28;20500;-62
2022/08/30 01:44:57;;;;;;;5.72;2.15;;;17.30;99.90;;;;;;5069419;28;20060;-63
2022/08/30 01:47:23;;;;;;;10.15;2.22;;;17.30;99.90;;;;;;5067378;28;20112;-63
2022/08/30 01:49:49;;;;;;;3.92;2.35;;;17.30;99.90;;;;;;5071371;28;20112;-63
2022/08/30 01:52:16;;;;;;;7.63;2.22;;;17.30;99.90;;;;;;5069418;28;20424;-63
2022/08/30 01:54:43;;;;;;;7.50;2.28;;;17.30;99.90;;;;;;5067556;28;20025;-63
2022/08/30 01:57:12;;;;;;;4.40;2.33;;;17.30;99.90;;;;;;5069748;28;20032;-63
2022/08/30 01:59:39;;;;;;;4.68;1.98;;;17.40;99.90;;;;;;5066447;28;20528;-61
2022/08/30 02:02:05;;;;;;;5.82;2.20;;;17.40;99.90;;;;;;5069216;28;20029;-63
2022/08/30 02:04:31;;;;;;;9.50;2.55;;;17.50;99.90;;;;;;5070389;28;20812;-62
2022/08/30 02:06:57;;;;;;;7.75;2.20;;;17.60;99.90;;;;;;5069268;28;20024;-63
2022/08/30 02:09:22;;;;;;;7.57;2.80;;;17.60;99.90;;;;;;5070308;28;20047;-62
2022/08/30 02:11:48;;;;;;;4.85;2.42;;;17.50;99.90;;;;;;5069444;28;20036;-63
2022/08/30 02:14:13;;;;;;;5.88;2.03;;;17.50;99.90;;;;;;5067772;28;20159;-63
2022/08/30 02:16:39;;;;;;;5.30;2.63;;;17.60;99.90;;;;;;5071683;28;20025;-62
2022/08/30 02:19:06;;;;;;;6.50;2.35;;;17.50;99.90;;;;;;5071909;28;20093;-62
2022/08/30 02:21:31;;;;;;;4.50;2.22;;;17.50;99.90;;;;;;5071049;28;20016;-63
2022/08/30 02:23:57;;;;;;;6.82;2.35;;;17.50;99.90;;;;;;5064790;28;20039;-63
2022/08/30 02:26:23;;;;;;;4.00;2.50;;;17.40;99.90;;;;;;5071297;28;20115;-61
2022/08/30 02:28:50;;;;;;;5.25;2.13;;;17.40;99.90;;;;;;5071097;28;20032;-63
2022/08/30 02:31:17;;;;;;;8.57;2.75;;;17.30;99.90;;;;;;5069210;28;20033;-62
2022/08/30 02:33:42;;;;;;;7.22;2.75;;;17.30;99.90;;;;;;5071257;28;20013;-63
2022/08/30 02:36:08;;;;;;;5.78;2.40;;;17.30;99.90;;;;;;5069974;28;20089;-63
2022/08/30 02:38:34;;;;;;;8.82;2.45;;;17.30;99.90;;;;;;5066100;28;20378;-63
2022/08/30 02:40:59;;;;;;;8.68;2.80;;;17.30;99.90;;;;;;5070452;28;20012;-62
2022/08/30 02:43:26;;;;;;;5.28;2.40;;;17.30;99.90;;;;;;5074015;28;20035;-61
2022/08/30 02:45:51;;;;;;;4.90;2.42;;;17.30;99.90;;;;;;5068741;28;20533;-62
2022/08/30 02:48:17;;;;;;;6.57;2.65;;;17.20;99.90;;;;;;5068024;28;20116;-61
2022/08/30 02:50:47;;;;;;;8.68;2.22;;;17.20;99.90;;;;;;5065508;28;20435;-62
2022/08/30 02:53:13;;;;;;;3.70;2.30;;;17.10;99.90;;;;;;5069593;28;20111;-61
2022/08/30 02:55:39;;;;;;;3.08;1.98;;;17.20;99.90;;;;;;5070765;28;20361;-62
2022/08/30 02:58:05;;;;;;;5.85;2.85;;;17.10;99.90;;;;;;5065914;28;20021;-63
2022/08/30 03:00:31;;;;;;;4.65;2.42;;;17.10;99.90;;;;;;5069209;28;20066;-63
2022/08/30 03:02:57;;;;;;;4.38;2.60;;;17.10;99.90;;;;;;5065414;28;20028;-61
2022/08/30 03:05:23;;;;;;;7.88;3.33;;;17.10;99.90;;;;;;5065337;28;20024;-62
2022/08/30 03:07:49;;;;;;;3.65;2.45;;;17.10;99.90;;;;;;5064755;28;20389;-62
2022/08/30 03:10:15;;;;;;;4.18;2.30;;;17.00;99.90;;;;;;5066700;28;20031;-63
2022/08/30 03:12:41;;;;;;;4.55;2.20;;;16.90;99.90;;;;;;5062808;28;20035;-63
2022/08/30 03:15:11;;;;;;;6.18;2.83;;;16.90;99.90;;;;;;5061059;28;20025;-62
2022/08/30 03:17:37;;;;;;;6.57;2.35;;;16.90;99.90;;;;;;5060911;28;20022;-63
2022/08/30 03:20:03;;;;;;;5.45;2.38;;;16.80;99.90;;;;;;5068429;28;20091;-64
2022/08/30 03:22:29;;;;;;;4.85;2.00;;;16.80;99.90;;;;;;5068831;28;20077;-63
2022/08/30 03:24:58;;;;;;;3.90;1.90;;;16.80;99.90;;;;;;5068353;28;20024;-62
2022/08/30 03:27:25;;;;;;;4.78;2.03;;;16.80;99.90;;;;;;5065723;28;20020;-60
2022/08/30 03:29:51;;;;;;;10.45;2.47;;;16.70;99.90;;;;;;5068985;28;20021;-62
2022/08/30 03:32:17;;;;;;;6.70;3.10;;;16.70;99.90;;;;;;5068410;28;20051;-62
2022/08/30 03:34:43;;;;;;;5.43;2.25;;;16.70;99.90;;;;;;5065167;28;20016;-61
2022/08/30 03:37:08;;;;;;;4.00;2.25;;;16.70;99.90;;;;;;5067968;28;20021;-62
2022/08/30 03:39:34;;;;;;;7.10;1.75;;;16.70;99.90;;;;;;5066915;28;20023;-62
2022/08/30 03:41:59;;;;;;;7.45;2.67;;;16.70;99.90;;;;;;5069435;28;20642;-60
2022/08/30 03:44:25;;;;;;;5.38;2.13;;;16.70;99.90;;;;;;5067167;28;20028;-60
2022/08/30 03:46:51;;;;;;;8.90;2.22;;;16.70;99.90;;;;;;5067601;28;20084;-62
2022/08/30 03:49:18;;;;;;;5.88;2.50;;;16.60;99.90;;;;;;5068142;28;20016;-63
2022/08/30 03:51:43;;;;;;;5.60;2.75;;;16.60;99.90;;;;;;5069270;28;20033;-62
2022/08/30 03:54:09;;;;;;;4.88;2.20;;;16.60;99.90;;;;;;5066347;28;20029;-62
2022/08/30 03:56:35;;;;;;;10.10;2.75;;;16.70;99.90;;;;;;5068435;28;20549;-61
2022/08/30 03:59:01;;;;;;;4.50;2.83;;;16.70;99.90;;;;;;5068724;28;20016;-61
2022/08/30 04:01:27;;;;;;;6.90;2.42;;;16.60;99.90;;;;;;5068117;28;20154;-60
2022/08/30 04:03:52;;;;;;;8.32;2.90;;;16.50;99.90;;;;;;5062971;28;20417;-63
2022/08/30 04:06:18;;;;;;;6.10;2.65;;;16.40;99.90;;;;;;5066385;28;20470;-62
2022/08/30 04:08:44;;;;;;;5.35;2.70;;;16.40;99.90;;;;;;5064012;28;20028;-61
2022/08/30 04:11:11;;;;;;;5.95;2.65;;;16.30;99.90;;;;;;5059308;28;20017;-63
2022/08/30 04:13:37;;;;;;;5.38;2.72;;;16.30;99.90;;;;;;5068624;28;20021;-63
2022/08/30 04:16:02;;;;;;;6.00;2.88;;;16.30;99.90;;;;;;5068155;28;20039;-63
2022/08/30 04:18:28;;;;;;;5.00;2.42;;;16.20;99.90;;;;;;5067905;28;20025;-61
2022/08/30 04:20:54;;;;;;;6.95;2.75;;;16.10;99.90;;;;;;5070284;28;20063;-63
2022/08/30 04:23:20;;;;;;;5.70;2.72;;;16.00;99.90;;;;;;5066757;28;20036;-62
2022/08/30 04:25:45;;;;;;;11.63;2.67;;;16.00;99.90;;;;;;5066950;28;20070;-62
2022/08/30 04:28:11;;;;;;;12.43;3.28;;;15.90;99.90;;;;;;5067396;28;20040;-63
2022/08/30 04:30:39;;;;;;;10.95;3.00;;;15.90;99.90;;;;;;5069017;28;20058;-63
2022/08/30 04:33:05;;;;;;;8.35;2.95;;;15.90;99.90;;;;;;5071416;28;20024;-63
2022/08/30 04:35:31;;;;;;;5.07;2.63;;;15.90;99.90;;;;;;5068074;28;20376;-63
2022/08/30 04:37:56;;;;;;;17.33;3.90;;;15.90;99.90;;;;;;5059396;28;20017;-61
2022/08/30 04:40:22;;;;;;;9.30;2.85;;;15.80;99.90;;;;;;5071509;28;20040;-62
2022/08/30 04:42:47;;;;;;;6.80;3.13;;;15.70;99.90;;;;;;5068926;28;20021;-60
2022/08/30 04:45:15;;;;;;;9.90;3.60;;;15.70;99.90;;;;;;5071105;28;20020;-61
2022/08/30 04:47:42;;;;;;;5.68;2.70;;;15.60;99.90;;;;;;5065494;28;20021;-62
2022/08/30 04:50:10;;;;;;;6.50;3.13;;;15.60;99.90;;;;;;5072500;28;20029;-63
2022/08/30 04:52:35;;;;;;;7.25;3.03;;;15.60;99.90;;;;;;5069166;28;20059;-62
2022/08/30 04:55:01;;;;;;;6.97;3.13;;;15.50;99.90;;;;;;5068567;28;20056;-61
2022/08/30 04:57:28;;;;;;;8.50;2.92;;;15.50;99.90;;;;;;5066827;28;20032;-62
2022/08/30 04:59:55;;;;;;;7.85;3.08;;;15.60;99.90;;;;;;5071106;28;20052;-61
2022/08/30 05:02:21;;;;;;;11.68;2.92;;;15.60;99.90;;;;;;5065817;28;20428;-62
2022/08/30 05:07:31;;;;;;;8.18;2.83;;;15.80;99.90;;;;;;5069190;28;20517;-60
2022/08/30 05:09:58;;;;;;;3.88;2.67;;;15.90;99.90;;;;;;5067980;28;20063;-61
2022/08/30 05:12:24;;;;;;;4.43;2.58;;;16.00;99.90;;;;;;5069685;28;20016;-61
2022/08/30 05:14:50;;;;;;;7.80;3.10;;;16.00;99.90;;;;;;5069903;28;20032;-63
2022/08/30 05:17:16;;;;;;;10.50;3.03;;;16.00;99.90;;;;;;5070276;28;21753;-62
2022/08/30 05:19:42;;;;;;;6.57;3.22;;;16.10;99.90;;;;;;5068208;28;20036;-62
2022/08/30 05:22:08;;;;;;;9.38;3.70;;;16.10;99.90;;;;;;5067397;28;20107;-63
2022/08/30 05:24:34;;;;;;;5.88;2.80;;;16.20;99.90;;;;;;5065168;28;20120;-62
2022/08/30 05:27:00;;;;;;;8.02;3.47;;;16.20;99.90;;;;;;5066132;28;20021;-62
2022/08/30 05:29:26;;;;;;;9.73;2.97;;;16.20;99.90;;;;;;5059955;28;20029;-62
2022/08/30 05:31:52;;;;;;;5.10;2.72;;;16.30;99.90;;;;;;5064076;28;20401;-62
2022/08/30 05:34:19;;;;;;;10.50;2.80;;;16.30;99.90;;;;;;5065409;28;20109;-62
2022/08/30 05:36:45;;;;;;;8.40;2.95;;;16.30;99.90;;;;;;5067186;28;20021;-62
2022/08/30 05:39:11;;;;;;;11.70;4.00;;;16.40;99.90;;;;;;5067648;28;20028;-62
2022/08/30 05:41:37;;;;;;;6.88;2.90;;;16.40;99.90;;;;;;5065701;28;20056;-62
2022/08/30 05:44:04;;;;;;;10.13;2.75;;;16.50;99.90;;;;;;5066662;28;20021;-63
2022/08/30 05:46:34;;;;;;;11.57;3.17;;;16.50;99.90;;;;;;5068236;28;20449;-62
2022/08/30 05:49:02;;;;;;;12.60;3.65;;;16.50;99.90;;;;;;5062386;28;20032;-62
2022/08/30 05:51:29;;;;;;;7.18;3.10;;;16.60;99.90;;;;;;5064338;28;20600;-62
2022/08/30 05:53:57;;;;;;;7.88;3.13;;;16.60;99.90;;;;;;5062154;28;20501;-63
2022/08/30 05:56:29;;;;;;;12.52;3.22;;;16.70;99.90;;;;;;5067286;28;20074;-62
2022/08/30 05:58:55;;;;;;;11.18;3.92;;;16.80;99.90;;;;;;5064005;28;20016;-62
2022/08/30 06:01:23;;;;;;;11.57;3.15;;;16.90;99.90;;;;;;5067533;28;20489;-62
2022/08/30 06:03:49;;;;;;;16.75;3.63;;;17.00;99.90;;;;;;5068398;28;20036;-57
2022/08/30 06:06:15;;;;;;;11.70;3.40;;;17.10;99.90;;;;;;5066275;28;20050;-56
2022/08/30 06:08:44;;;;;;;11.10;3.13;;;17.20;99.90;;;;;;5068781;28;20025;-57
2022/08/30 06:11:10;;;;;;;8.57;3.35;;;17.30;99.90;;;;;;5069922;28;20025;-56
2022/08/30 06:13:35;;;;;;;13.23;2.88;;;17.40;99.90;;;;;;5071527;28;20470;-56
2022/08/30 06:16:01;;;;;;;11.18;2.97;;;17.50;99.90;;;;;;5067639;28;20036;-57
2022/08/30 06:18:27;;;;;;;4.40;2.58;;;17.60;99.90;;;;;;5070101;28;20029;-57
2022/08/30 06:20:52;;;;;;;7.10;3.38;;;17.70;99.90;;;;;;5068932;28;20394;-58
2022/08/30 06:23:18;;;;;;;9.77;3.08;;;17.80;99.90;;;;;;5088237;22;20116;-52
2022/08/30 06:25:44;;;;;;;7.45;2.33;;;17.90;99.90;;;;;;5071123;28;20417;-51
2022/08/30 06:28:10;;;;;;;5.95;2.88;;;18.00;99.90;;;;;;5071587;28;20026;-56
2022/08/30 06:30:39;;;;;;;7.53;3.17;;;18.00;99.90;;;;;;5070977;28;20023;-52
2022/08/30 06:33:05;;;;;;;9.30;3.17;;;18.00;99.90;;;;;;5055977;28;20037;-55
2022/08/30 06:35:31;;;;;;;9.57;3.22;;;18.00;99.90;;;;;;5050451;28;20164;-51
2022/08/30 06:37:57;;;;;;;8.95;3.35;;;18.00;99.90;;;;;;5048958;28;20017;-53
2022/08/30 06:40:23;;;;;;;9.15;2.75;;;18.00;99.90;;;;;;5048179;28;20083;-52
2022/08/30 06:42:50;;;;;;;11.10;3.63;;;17.90;99.90;;;;;;5051242;28;20029;-51
2022/08/30 06:45:16;;;;;;;4.97;2.25;;;17.90;99.90;;;;;;5051184;28;20107;-52
2022/08/30 06:47:42;;;;;;;7.78;2.97;;;17.90;99.90;;;;;;5058623;28;20033;-55
2022/08/30 06:50:09;;;;;;;5.53;2.70;;;18.00;99.90;;;;;;5055930;28;20374;-52
2022/08/30 06:52:35;;;;;;;7.13;2.80;;;18.00;99.90;;;;;;5051758;28;20021;-57
2022/08/30 06:55:00;;;;;;;12.95;3.60;;;18.10;99.90;;;;;;5050782;28;20021;-52
2022/08/30 06:57:26;;;;;;;11.40;2.45;;;18.20;99.90;;;;;;5058944;28;20016;-52
2022/08/30 06:59:57;;;;;;;10.43;3.15;;;18.40;99.90;;;;;;5051126;28;20040;-52
2022/08/30 07:02:24;;;;;;;10.43;2.97;;;18.50;99.90;;;;;;5047833;28;20032;-54
2022/08/30 07:04:50;;;;;;;4.20;2.28;;;18.60;99.90;;;;;;5050267;28;20017;-52
2022/08/30 07:07:15;;;;;;;9.50;2.55;;;18.80;99.90;;;;;;5056969;28;20037;-52
2022/08/30 07:09:42;;;;;;;16.33;3.30;;;18.90;99.90;;;;;;5051519;28;20029;-52
2022/08/30 07:12:11;;;;;;;8.80;2.92;;;19.10;99.90;;;;;;5050449;28;20029;-54
2022/08/30 07:14:38;;;;;;;14.38;3.60;;;19.20;99.90;;;;;;5051189;28;20025;-52
2022/08/30 07:18:49;;;;;;;11.10;3.70;;;19.40;99.90;;;;;;5053974;28;20417;-54
2022/08/30 07:19:50;;;;;;;7.05;2.35;;;19.50;99.90;;;;;;5051351;28;20374;-57
2022/08/30 07:22:16;;;;;;;8.95;2.40;;;19.60;99.90;;;;;;5050558;28;20086;-52
2022/08/30 07:24:42;;;;;;;10.10;2.70;;;19.60;99.90;;;;;;5050323;28;20060;-52
2022/08/30 07:27:08;;;;;;;3.78;2.47;;;19.60;99.90;;;;;;5055352;28;20374;-52
2022/08/30 07:29:33;;;;;;;10.30;3.13;;;19.60;99.90;;;;;;5052139;28;20014;-53
2022/08/30 07:31:59;;;;;;;11.52;2.70;;;19.70;99.90;;;;;;5051470;28;20044;-54
2022/08/30 07:34:24;;;;;;;12.05;3.03;;;19.80;99.90;;;;;;5050510;28;20024;-52
2022/08/30 07:36:50;;;;;;;6.93;2.53;;;19.90;99.90;;;;;;5053330;28;20024;-53
2022/08/30 07:39:15;;;;;;;7.97;3.10;;;20.00;99.90;;;;;;5048490;28;20051;-52
2022/08/30 07:41:43;;;;;;;9.75;2.75;;;20.00;99.90;;;;;;5051073;28;20037;-54
2022/08/30 07:44:08;;;;;;;5.28;2.25;;;20.10;99.90;;;;;;5049141;28;20427;-54
2022/08/30 07:46:36;;;;;;;13.43;2.47;;;20.10;99.90;;;;;;5051975;28;20028;-55
2022/08/30 07:49:02;;;;;;;7.55;2.13;;;20.30;99.90;;;;;;5051304;28;20098;-55
2022/08/30 07:51:28;;;;;;;7.20;2.63;;;20.40;99.90;;;;;;5050041;28;20021;-52
2022/08/30 07:53:54;;;;;;;6.85;2.35;;;20.50;99.90;;;;;;5045734;28;20032;-53
2022/08/30 07:56:21;;;;;;;15.15;3.60;;;20.60;99.90;;;;;;5052802;28;20156;-53
2022/08/30 07:58:47;;;;;;;11.77;2.97;;;20.70;99.90;;;;;;5051843;28;20605;-51
2022/08/30 08:01:13;;;;;;;6.55;2.70;;;20.90;99.90;;;;;;5048380;28;20095;-54
2022/08/30 08:03:40;;;;;;;7.97;3.15;;;21.00;99.90;;;;;;5047111;28;20040;-53
2022/08/30 08:06:07;;;;;;;5.82;2.28;;;21.00;99.90;;;;;;5048212;28;20021;-52
2022/08/30 08:08:34;;;;;;;6.00;2.45;;;21.10;99.90;;;;;;5056273;28;20104;-53
2022/08/30 08:11:16;;;;;;;5.93;2.50;;;21.10;99.90;;;;;;5052938;28;20406;-51
2022/08/30 08:13:43;;;;;;;9.95;2.63;;;21.10;99.90;;;;;;5052481;28;20053;-53
2022/08/30 08:16:09;;;;;;;9.63;3.08;;;21.10;99.90;;;;;;5058041;28;20036;-51
2022/08/30 08:18:34;;;;;;;7.85;2.80;;;21.10;99.90;;;;;;5056671;28;20052;-55
2022/08/30 08:21:00;;;;;;;13.68;3.45;;;21.10;99.90;;;;;;5055152;28;20024;-52
2022/08/30 08:23:27;;;;;;;8.52;3.05;;;21.10;99.90;;;;;;5052985;28;20029;-53
2022/08/30 08:25:52;;;;;;;4.50;1.80;;;21.20;99.90;;;;;;5054157;28;20369;-55
2022/08/30 08:28:18;;;;;;;7.57;2.30;;;21.30;99.90;;;;;;5054780;28;20478;-53
2022/08/30 08:30:44;;;;;;;9.40;2.35;;;21.40;99.90;;;;;;5052886;28;20033;-53
2022/08/30 08:33:12;;;;;;;5.15;1.90;;;21.60;99.90;;;;;;5054396;28;20082;-53
2022/08/30 08:35:38;;;;;;;8.52;2.45;;;21.70;99.90;;;;;;5054247;28;20032;-54
2022/08/30 08:38:04;;;;;;;10.48;2.78;;;21.80;99.90;;;;;;5052303;28;20036;-53
2022/08/30 08:40:39;;;;;;;10.02;2.30;;;22.00;99.90;;;;;;5055121;28;20028;-54
2022/08/30 08:43:12;;;;;;;5.43;2.45;;;22.10;99.90;;;;;;5055943;28;20105;-52
2022/08/30 08:45:55;;;;;;;7.15;2.90;;;22.10;99.90;;;;;;5053734;28;20569;-57
2022/08/30 08:48:40;;;;;;;10.43;2.33;;;22.20;99.90;;;;;;5054927;28;20032;-56
2022/08/30 08:54:01;;;;;;;4.70;2.10;;;22.30;99.90;;;;;;5052715;28;20043;-53
2022/08/30 08:56:27;;;;;;;7.20;2.08;;;22.40;99.90;;;;;;5055994;28;20020;-56
2022/08/30 08:58:55;;;;;;;5.28;1.98;;;22.50;99.90;;;;;;5050250;28;20028;-54
2022/08/30 09:01:27;;;;;;;3.83;1.88;;;22.50;99.90;;;;;;5052026;28;20029;-52
2022/08/30 09:03:56;;;;;;;4.65;2.28;;;22.70;99.90;;;;;;5054168;28;20021;-54
2022/08/30 09:06:26;;;;;;;5.50;1.98;;;22.70;99.90;;;;;;5055986;28;20020;-54
2022/08/30 09:08:52;;;;;;;6.75;1.98;;;22.80;99.90;;;;;;5056110;28;20099;-52
2022/08/30 09:11:28;;;;;;;9.40;1.77;;;22.90;99.90;;;;;;5047026;28;20114;-56
2022/08/30 09:13:54;;;;;;;8.35;2.20;;;23.00;99.90;;;;;;5053680;28;20042;-54
2022/08/30 09:17:04;;;;;;;5.47;2.15;;;23.20;99.90;;;;;;5056335;28;20068;-56
2022/08/30 09:19:44;;;;;;;9.82;1.95;;;23.50;99.90;;;;;;5048803;28;20017;-55
2022/08/30 09:22:20;;;;;;;7.25;2.05;;;23.70;99.90;;;;;;5052572;28;20017;-55
2022/08/30 09:24:50;;;;;;;6.10;2.22;;;24.00;99.90;;;;;;5051251;28;20550;-53
2022/08/30 09:27:23;;;;;;;5.95;1.90;;;24.20;99.90;;;;;;5052937;28;20524;-52
2022/08/30 09:29:53;;;;;;;9.75;2.55;;;24.40;99.90;;;;;;5061542;28;20029;-53
2022/08/30 09:32:44;;;;;;;5.00;2.17;;;24.30;99.90;;;;;;5053073;28;20060;-54
2022/08/30 09:35:16;;;;;;;13.52;3.53;;;24.20;99.90;;;;;;5027526;28;20034;-56
2022/08/30 09:37:55;;;;;;;10.93;2.22;;;24.20;99.90;;;;;;5051774;28;20161;-56
2022/08/30 09:40:31;;;;;;;7.65;1.63;;;24.20;99.90;;;;;;5057830;28;20028;-55
2022/08/30 09:43:18;;;;;;;7.40;1.90;;;24.30;99.90;;;;;;5051429;28;20126;-55
2022/08/30 09:46:03;;;;;;;5.68;2.38;;;24.40;99.90;;;;;;5047652;28;20025;-54
2022/08/30 09:48:31;;;;;;;5.50;1.80;;;24.40;99.90;;;;;;5052232;28;20031;-53
2022/08/30 09:51:09;;;;;;;6.93;2.40;;;24.20;99.90;;;;;;5051933;28;20383;-53
2022/08/30 09:53:44;;;;;;;9.90;2.58;;;24.10;99.90;;;;;;5053324;28;20028;-52
2022/08/30 09:56:30;;;;;;;8.88;2.30;;;24.00;99.90;;;;;;5052984;28;20021;-52
2022/08/30 09:59:05;;;;;;;5.25;1.90;;;24.00;99.90;;;;;;5064772;28;20222;-55
2022/08/30 10:01:41;;;;;;;6.32;2.60;;;24.00;99.90;;;;;;5053524;28;20090;-53
2022/08/30 10:04:43;;;;;;;4.95;2.22;;;24.20;99.90;;;;;;5050998;28;20486;-55
2022/08/30 10:07:19;;;;;;;4.90;2.08;;;24.40;99.90;;;;;;5052900;28;20102;-52
2022/08/30 10:09:50;;;;;;;5.97;2.00;;;24.60;99.90;;;;;;5054942;28;20779;-54
2022/08/30 10:12:26;;;;;;;5.60;2.30;;;24.70;99.90;;;;;;5059712;28;20040;-55
2022/08/30 10:14:54;;;;;;;3.88;2.22;;;24.60;99.90;;;;;;5050808;28;20096;-52
2022/08/30 10:17:20;;;;;;;4.57;2.13;;;24.60;99.90;;;;;;5056757;28;20501;-56
2022/08/30 10:19:55;;;;;;;7.57;2.67;;;24.60;99.90;;;;;;5055330;28;20017;-52
2022/08/30 10:22:35;;;;;;;5.18;2.40;;;24.70;99.90;;;;;;5049514;28;20078;-56
2022/08/30 10:25:40;;;;;;;7.93;2.13;;;24.70;99.90;;;;;;5050450;28;20033;-55
2022/08/30 10:28:17;;;;;;;3.78;2.30;;;24.80;99.90;;;;;;5051353;28;20040;-55
2022/08/30 10:30:48;;;;;;;5.07;2.03;;;25.00;99.90;;;;;;5051076;28;20032;-56
2022/08/30 10:33:21;;;;;;;4.95;2.00;;;25.00;99.90;;;;;;5051883;28;20023;-55
2022/08/30 10:35:51;;;;;;;9.38;2.17;;;25.20;99.90;;;;;;5049824;28;20040;-57
2022/08/30 10:38:28;;;;;;;7.05;2.53;;;25.40;99.90;;;;;;5051425;28;20079;-53
2022/08/30 10:41:18;;;;;;;5.90;1.77;;;25.50;99.90;;;;;;5050239;28;20377;-54
2022/08/30 10:43:55;;;;;;;9.65;2.85;;;25.60;99.90;;;;;;5049525;28;20482;-55
2022/08/30 10:46:57;;;;;;;10.23;2.05;;;25.90;99.90;;;;;;5053667;28;20531;-55
2022/08/30 10:49:27;;;;;;;4.80;1.92;;;26.10;99.90;;;;;;5049182;28;20101;-55
2022/08/30 10:52:07;;;;;;;11.50;2.33;;;26.40;99.90;;;;;;5050309;28;20028;-55
2022/08/30 10:54:59;;;;;;;7.22;1.77;;;26.50;99.90;;;;;;5049637;28;20028;-57
2022/08/30 10:57:25;;;;;;;12.10;2.08;;;26.50;99.90;;;;;;5052230;28;20024;-56
2022/08/30 10:59:56;;;;;;;4.95;2.30;;;27.10;99.90;;;;;;5054033;28;20373;-57
2022/08/30 11:02:31;;;;;;;9.52;3.05;;;27.20;99.90;;;;;;5044304;28;20032;-56
2022/08/30 11:05:11;;;;;;;7.15;1.88;;;27.50;99.90;;;;;;5051068;28;20367;-56
2022/08/30 11:07:43;;;;;;;4.93;2.20;;;28.10;99.90;;;;;;5049472;28;20031;-58
2022/08/30 11:10:26;;;;;;;3.90;2.28;;;28.00;99.90;;;;;;5054161;28;20025;-56
2022/08/30 11:13:09;;;;;;;8.32;2.45;;;28.20;99.90;;;;;;5049214;28;20024;-55
2022/08/30 11:15:53;;;;;;;5.32;2.10;;;28.30;99.90;;;;;;5050380;28;20021;-56
2022/08/30 11:18:19;;;;;;;6.83;1.93;;;28.50;99.90;;;;;;5051409;28;20017;-56
2022/08/30 11:20:49;;;;;;;7.22;2.00;;;28.60;99.90;;;;;;5050172;28;20024;-56
2022/08/30 11:23:27;;;;;;;9.35;2.33;;;28.30;99.90;;;;;;5049562;28;20028;-58
2022/08/30 11:26:03;;;;;;;5.20;2.42;;;28.70;99.90;;;;;;5049350;28;20025;-54
2022/08/30 11:28:34;;;;;;;12.57;2.53;;;28.80;99.90;;;;;;5050759;28;20043;-54
2022/08/30 11:31:07;;;;;;;5.10;2.25;;;28.20;99.90;;;;;;5048801;28;20509;-55
2022/08/30 11:33:54;;;;;;;5.57;2.30;;;28.50;99.90;;;;;;5052421;28;20074;-55
2022/08/30 11:36:28;;;;;;;4.30;1.90;;;28.70;99.90;;;;;;5049349;28;20021;-54
2022/08/30 11:38:54;;;;;;;5.63;2.13;;;28.70;99.90;;;;;;5051694;28;20020;-53
2022/08/30 11:41:44;;;;;;;9.30;2.45;;;28.80;99.90;;;;;;5048344;28;20096;-56
2022/08/30 11:44:30;;;;;;;6.97;2.45;;;28.90;99.90;;;;;;5053354;28;20021;-55
2022/08/30 11:47:01;;;;;;;4.78;1.90;;;29.10;99.80;;;;;;5054593;28;20435;-57
2022/08/30 11:49:34;;;;;;;5.20;2.25;;;28.80;99.90;;;;;;5053943;28;20106;-56
2022/08/30 11:52:16;;;;;;;4.77;2.03;;;29.10;99.90;;;;;;5050926;28;20036;-55
2022/08/30 11:55:02;;;;;;;4.50;2.08;;;29.40;99.30;;;;;;5052287;28;20021;-56
2022/08/30 11:57:40;;;;;;;6.78;2.35;;;29.40;98.40;;;;;;5053955;28;20028;-54
2022/08/30 12:00:24;;;;;;;5.88;2.15;;;29.30;98.50;;;;;;5056573;28;20016;-53
2022/08/30 12:02:49;;;;;;;;;;;29.60;98.40;;;;;;5055320;28;20027;-56
2022/08/30 12:05:37;;;;;;;4.50;1.90;;;29.90;97.70;;;;;;5053163;28;19995;-56
2022/08/30 12:08:09;;;;;;;8.10;3.15;;;29.70;96.60;;;;;;5052552;28;20029;-54
2022/08/30 12:10:42;;;;;;;5.63;2.65;;;29.20;97.30;;;;;;5053076;28;20028;-55
2022/08/30 12:13:09;;;;;;;4.78;2.10;;;29.00;97.80;;;;;;5053503;28;20079;-55
2022/08/30 12:15:57;;;;;;;7.22;2.47;;;29.50;97.80;;;;;;5053021;28;20021;-53
2022/08/30 12:18:29;;;;;;;5.95;2.60;;;29.90;96.70;;;;;;5053524;28;20086;-54
2022/08/30 12:21:01;;;;;;;6.10;2.03;;;30.00;96.40;;;;;;5054142;28;20145;-56
2022/08/30 12:23:39;;;;;;;10.30;2.78;;;30.30;96.80;;;;;;5085156;22;20052;-59
2022/08/30 12:26:17;;;;;;;7.95;2.55;;;30.80;96.30;;;;;;5071230;28;20024;-58
2022/08/30 12:28:45;;;;;;;6.82;2.45;;;30.80;95.60;;;;;;5072925;28;20017;-59
2022/08/30 12:31:24;;;;;;;5.10;2.20;;;30.40;95.10;;;;;;5074017;28;20020;-59
2022/08/30 12:33:55;;;;;;;4.72;2.28;;;30.20;95.10;;;;;;5069526;28;20048;-60
2022/08/30 12:36:33;;;;;;;5.90;2.45;;;29.90;95.50;;;;;;5086052;28;20016;-58
2022/08/30 12:39:42;;;;;;;6.88;2.83;;;29.60;96.50;;;;;;5072162;28;20021;-60
2022/08/30 12:42:21;;;;;;;3.80;2.45;;;29.30;95.20;;;;;;5064084;28;20048;-60
2022/08/30 12:44:49;;;;;;;5.97;2.20;;;29.00;95.20;;;;;;5072010;28;20381;-58
2022/08/30 12:47:22;;;;;;;4.43;1.95;;;28.70;96.50;;;;;;5066511;28;20429;-60
2022/08/30 12:49:50;;;;;;;3.75;2.13;;;28.80;96.00;;;;;;5069776;28;20025;-60
2022/08/30 12:52:22;;;;;;;8.25;2.40;;;29.30;96.50;;;;;;5071515;28;20086;-59
2022/08/30 12:54:49;;;;;;;11.02;2.40;;;29.80;95.30;;;;;;5066420;28;20009;-60
2022/08/30 12:57:38;;;;;;;6.78;2.90;;;30.10;94.80;;;;;;5070432;28;20051;-60
2022/08/30 13:00:07;;;;;;;4.82;2.20;;;30.20;95.10;;;;;;5065470;28;20048;-60
2022/08/30 13:02:41;;;;;;;7.13;2.35;;;30.30;94.80;;;;;;5070857;28;20108;-60
2022/08/30 13:05:42;;;;;;;8.00;2.80;;;30.30;94.80;;;;;;5071928;28;20111;-59